Vancouver International Airport
CYVR : now visible

Airfield :











YOU CAN JOIN US ON...

 
LOGIN :

Register | Disclaimer

   EN    FR    IT 

 









Legend :    VFR   Marginal VFR   IFR   Intensive IFR   Very Intensive IFR
Visi :
Ceiling :
>= 8 km
>= 3000ft
5 to 8 km
1000 to 3000 ft
1500m to 5 km
500 to 1000 ft
800 to 1500m
200 to 500 ft
< 800m
< 200 ft
Symbols :   Thunderstorms  Fog  Heavy snow  Heavy precipitations  Wind > 20 kt







- Airport Elevation : 14 ft
- IATA code : YVR


CYVR - Vancouver International

CURRENT METAR :
  • 211700Z 11009KT 20SM FEW012 BKN028 15/13 A3013 RMK CU1SC7 CU TR SLP203

EXPIRED METARs :
  • 211600Z 11011KT 20SM SCT028 BKN038 BKN052 15/13 A3013 RMK SC3SC3SC1 SLP203
  • 211500Z 10006KT 20SM BKN038 15/12 A3013 RMK SC7 SLP203

TAF TAF CYVR
Valid from the 21 at 15:00 until the 22 at 18:00 UTC


211438Z 2115/2218 11006KT P6SM BKN025 BKN050
TEMPO 2115/2118 5SM -DZ BR FEW008 BKN020 OVC050
FM211800 10010KT P6SM SCT020 BKN050
TEMPO 2118/2122 BKN020
FM212200 14010KT P6SM BKN040
BECMG 2200/2202 12008KT
FM220600 10010KT P6SM SCT020 BKN040 OVC100
TEMPO 2206/2209 P6SM -SHRA BKN020 OVC040
FM220900 10008KT 6SM -RA SCT010 OVC025
TEMPO 2209/2215 5SM RA BR SCT008 OVC010
FM221500 14010G20KT P6SM -RA SCT015 OVC030
BECMG 2216/2218 23012KT RMK NXT FCST BY 211800Z
No reported NOTAMs for that airfield.



MET'MAP, your aeronautical weather chart ! - Copyright ORBIFLY December 2007 - Disclaimer

ORBIFLY MET'MAP TEAM :

Programming & Development : Alexandra Zaïnal
Concept & Development : Baudouin d'Aumeries
Co-Development & Prog : Marc-Olivier Méhu
Technical & hardware support : Manuel Goepfert

Contact : metmap@orbifly.com




SOURCES & CREDITS :

   NOAA       Earth
Advisory